createdAt,value
2022-12-16T00:01:42.669Z,-2.60
2022-12-16T00:05:44.692Z,-2.30
2022-12-16T00:09:46.513Z,-2.30
2022-12-16T00:13:48.602Z,-2.50
2022-12-16T00:17:50.317Z,-2.90
2022-12-16T00:21:53.558Z,-2.30
2022-12-16T00:25:56.773Z,-1.60
2022-12-16T00:29:59.924Z,-1.80
2022-12-16T00:34:01.657Z,-2.40
2022-12-16T00:38:03.422Z,-2.30
2022-12-16T00:42:05.248Z,-2.00
2022-12-16T00:46:07.113Z,-2.30
2022-12-16T00:50:09.446Z,-2.00
2022-12-16T00:54:11.320Z,-1.80
2022-12-16T00:58:14.224Z,-2.00
2022-12-16T01:02:16.445Z,-1.90
2022-12-16T01:06:18.462Z,-1.90
2022-12-16T01:10:20.929Z,-3.10
2022-12-16T01:14:22.859Z,-3.80
2022-12-16T01:18:24.611Z,-3.80
2022-12-16T01:22:26.445Z,-3.90
2022-12-16T01:26:28.241Z,-3.20
2022-12-16T01:30:30.026Z,-3.40
2022-12-16T01:34:32.090Z,-2.80
2022-12-16T01:38:34.219Z,-1.90
2022-12-16T01:42:36.040Z,-2.20
2022-12-16T01:46:38.600Z,-2.90
2022-12-16T01:50:40.652Z,-2.90
2022-12-16T01:54:56.434Z,-2.70
2022-12-16T01:58:58.915Z,-2.70
2022-12-16T02:03:00.931Z,-3.30
2022-12-16T02:07:02.928Z,-3.40
2022-12-16T02:11:16.741Z,-3.90
2022-12-16T02:15:24.391Z,-3.40
2022-12-16T02:19:28.812Z,-3.40
2022-12-16T02:23:59.627Z,-4.00
2022-12-16T02:28:55.347Z,-3.60
2022-12-16T02:33:43.645Z,-4.90
2022-12-16T02:38:17.972Z,-3.80
2022-12-16T02:42:23.721Z,-4.30
2022-12-16T02:46:31.859Z,-4.50
2022-12-16T02:50:39.480Z,-4.00
2022-12-16T02:54:42.342Z,-3.60
2022-12-16T02:59:11.460Z,-2.90
2022-12-16T03:03:37.637Z,-3.30
2022-12-16T03:07:41.897Z,-3.80
2022-12-16T03:11:45.473Z,-3.00
2022-12-16T03:15:50.009Z,-2.80
2022-12-16T03:20:12.032Z,-2.20
2022-12-16T03:24:14.835Z,-1.70
2022-12-16T03:28:16.684Z,-2.30
2022-12-16T03:32:37.797Z,-2.20
2022-12-16T03:36:41.609Z,-2.30
2022-12-16T03:40:44.502Z,-2.30
2022-12-16T03:44:47.752Z,-2.10
2022-12-16T03:48:51.550Z,-2.60
2022-12-16T03:52:53.831Z,-2.00
2022-12-16T03:56:55.747Z,-2.00
2022-12-16T04:00:57.505Z,-2.00
2022-12-16T04:04:59.277Z,-1.70
2022-12-16T04:09:01.054Z,-1.80
2022-12-16T04:13:21.523Z,-1.40
2022-12-16T04:17:41.916Z,-1.10
2022-12-16T04:22:02.412Z,-1.40
2022-12-16T04:26:05.237Z,-1.10
2022-12-16T04:30:19.631Z,-0.80
2022-12-16T04:34:31.463Z,-0.60
2022-12-16T04:38:52.055Z,-0.60
2022-12-16T04:43:12.226Z,-0.50
2022-12-16T04:47:32.444Z,-0.40
2022-12-16T04:51:52.944Z,-0.40
2022-12-16T04:56:13.385Z,-0.80
2022-12-16T05:00:33.951Z,-1.10
2022-12-16T05:04:54.335Z,-0.80
2022-12-16T05:09:14.910Z,-0.70
2022-12-16T05:13:35.614Z,-0.50
2022-12-16T05:17:57.054Z,-0.50
2022-12-16T05:22:17.586Z,-0.40
2022-12-16T05:26:38.036Z,-0.30
2022-12-16T05:30:58.632Z,-0.50
2022-12-16T05:35:18.950Z,-1.40
2022-12-16T05:39:39.518Z,-1.30
2022-12-16T05:44:00.149Z,-1.10
2022-12-16T05:48:20.766Z,-1.00
2022-12-16T05:52:41.334Z,-0.90
2022-12-16T05:57:01.710Z,-0.90
2022-12-16T06:01:22.340Z,-0.70
2022-12-16T06:05:42.583Z,-0.50
2022-12-16T06:10:03.167Z,-0.60
2022-12-16T06:14:23.684Z,-0.50
2022-12-16T06:18:54.734Z,-0.70
2022-12-16T06:23:15.262Z,-0.60
2022-12-16T06:27:35.668Z,-0.40
2022-12-16T06:31:56.014Z,-1.20
2022-12-16T06:36:16.350Z,-1.00
2022-12-16T06:40:36.612Z,-0.70
2022-12-16T06:44:57.296Z,-0.60
2022-12-16T06:49:17.872Z,-1.30
2022-12-16T06:53:38.399Z,-1.90
2022-12-16T06:57:59.300Z,-2.00
2022-12-16T07:02:19.946Z,-1.50
2022-12-16T07:06:40.421Z,-1.60
2022-12-16T07:11:15.333Z,-1.20
2022-12-16T07:15:36.912Z,-0.80
2022-12-16T07:19:57.356Z,-1.30
2022-12-16T07:24:17.889Z,-1.00
2022-12-16T07:28:38.550Z,-1.10
2022-12-16T07:32:59.005Z,-0.90
2022-12-16T07:37:19.454Z,-0.80
2022-12-16T07:41:40.066Z,-0.80
2022-12-16T07:46:00.314Z,-0.70
2022-12-16T07:50:20.616Z,-0.60
2022-12-16T07:54:41.249Z,-0.80
2022-12-16T07:59:01.761Z,-0.60
2022-12-16T08:03:22.226Z,-0.50
2022-12-16T08:07:42.702Z,-0.80
2022-12-16T08:12:03.299Z,-0.90
2022-12-16T08:16:40.647Z,-0.80
2022-12-16T08:21:01.250Z,-2.00
2022-12-16T08:25:21.772Z,-1.40
2022-12-16T08:34:22.644Z,-1.40
2022-12-16T08:38:42.880Z,-1.10
2022-12-16T08:43:05.541Z,-1.50
2022-12-16T08:47:31.220Z,-1.10
2022-12-16T08:51:51.718Z,-0.80
2022-12-16T08:56:12.259Z,-0.70
2022-12-16T09:00:33.308Z,-0.70
2022-12-16T09:04:53.792Z,-1.20
2022-12-16T09:09:15.913Z,-1.20
2022-12-16T09:13:36.838Z,-0.90
2022-12-16T09:17:57.471Z,-0.90
2022-12-16T09:22:18.239Z,-0.90
2022-12-16T09:26:39.065Z,-0.90
2022-12-16T09:30:59.466Z,-1.70
2022-12-16T09:35:19.796Z,-2.70
2022-12-16T09:39:40.260Z,-2.40
2022-12-16T09:44:24.229Z,-2.30
2022-12-16T09:49:09.492Z,-1.60
2022-12-16T09:53:33.824Z,-2.00
2022-12-16T09:57:55.980Z,-1.80
2022-12-16T10:02:17.088Z,-1.40
2022-12-16T10:07:02.345Z,-1.70
2022-12-16T10:11:40.572Z,-1.50
2022-12-16T10:16:25.974Z,-1.60
2022-12-16T10:21:07.974Z,-1.60
2022-12-16T10:25:38.662Z,-1.90
2022-12-16T10:30:02.060Z,-2.70
2022-12-16T10:34:39.652Z,-1.70
2022-12-16T10:39:10.218Z,-1.30
2022-12-16T10:43:40.049Z,-2.90
2022-12-16T10:48:00.511Z,-2.20
2022-12-16T10:52:20.744Z,-1.70
2022-12-16T10:56:41.239Z,-1.10
2022-12-16T11:01:05.329Z,-2.60
2022-12-16T11:05:47.100Z,-2.70
2022-12-16T11:10:27.345Z,-3.00
2022-12-16T11:15:12.701Z,-2.80
2022-12-16T11:19:46.095Z,-3.10
2022-12-16T11:24:23.578Z,-2.00
2022-12-16T11:28:44.192Z,-2.60
2022-12-16T11:33:12.149Z,-3.10
2022-12-16T11:37:32.832Z,-3.10
2022-12-16T11:42:06.080Z,-2.60
2022-12-16T11:46:37.375Z,-1.90
2022-12-16T11:51:08.508Z,-2.10
2022-12-16T12:00:25.021Z,-1.80
2022-12-16T12:04:45.621Z,-2.20
2022-12-16T12:09:09.074Z,-1.70
2022-12-16T12:13:47.772Z,-1.20
2022-12-16T12:18:15.155Z,-1.00
2022-12-16T12:22:44.546Z,-0.90
2022-12-16T12:27:31.547Z,-1.10
2022-12-16T12:32:28.145Z,-1.20
2022-12-16T12:37:10.295Z,-2.20
2022-12-16T12:41:43.557Z,-2.70
2022-12-16T12:46:07.062Z,-3.20
2022-12-16T12:50:39.304Z,-3.00
2022-12-16T12:55:38.276Z,-3.60
2022-12-16T13:00:16.675Z,-2.40
2022-12-16T13:04:56.919Z,-2.90
2022-12-16T13:09:18.507Z,-2.00
2022-12-16T13:13:44.672Z,-2.70
2022-12-16T13:18:19.966Z,-4.50
2022-12-16T13:22:47.770Z,-3.40
2022-12-16T13:27:19.559Z,-2.80
2022-12-16T13:31:40.894Z,-3.00
2022-12-16T13:36:15.513Z,-2.30
2022-12-16T13:40:41.682Z,-1.70
2022-12-16T13:45:02.178Z,-2.30
2022-12-16T13:50:01.546Z,-2.30
2022-12-16T13:54:25.234Z,-2.60
2022-12-16T13:59:04.762Z,-2.30
2022-12-16T14:03:37.735Z,-2.30
2022-12-16T14:08:00.212Z,-2.00
2022-12-16T14:12:27.869Z,-3.10
2022-12-16T14:17:09.550Z,-3.30
2022-12-16T14:21:35.795Z,-3.00
2022-12-16T14:25:58.818Z,-2.70
2022-12-16T14:30:20.442Z,-3.30
2022-12-16T14:34:51.041Z,-4.20
2022-12-16T14:39:11.634Z,-3.50
2022-12-16T14:43:33.761Z,-2.20
2022-12-16T14:47:58.940Z,-1.60
2022-12-16T14:52:19.379Z,-3.30
2022-12-16T14:56:42.379Z,-3.20
2022-12-16T15:01:02.785Z,-2.10
2022-12-16T15:05:24.581Z,-1.70
2022-12-16T15:09:56.008Z,-1.40
2022-12-16T15:14:19.803Z,-3.40
2022-12-16T15:18:44.974Z,-2.60
2022-12-16T15:23:07.574Z,-2.00
2022-12-16T15:27:39.843Z,-1.70
2022-12-16T15:32:03.623Z,-1.60
2022-12-16T15:36:29.675Z,-1.40
2022-12-16T15:40:52.717Z,-1.70
2022-12-16T15:45:13.328Z,-1.90
2022-12-16T15:49:53.421Z,-3.00
2022-12-16T15:54:21.607Z,-2.30
2022-12-16T15:58:52.345Z,-1.80
2022-12-16T16:03:12.849Z,-2.10
2022-12-16T16:07:43.013Z,-2.70
2022-12-16T16:12:03.455Z,-2.30
2022-12-16T16:16:24.209Z,-3.10
2022-12-16T16:20:44.569Z,-2.40
2022-12-16T16:25:15.685Z,-2.00
2022-12-16T16:29:36.104Z,-1.60
2022-12-16T16:33:56.406Z,-1.60
2022-12-16T16:38:18.527Z,-2.30
2022-12-16T16:42:39.221Z,-1.80
2022-12-16T16:47:00.511Z,-2.50
2022-12-16T16:51:23.002Z,-2.60
2022-12-16T16:55:43.210Z,-3.70
2022-12-16T17:00:03.729Z,-3.50
2022-12-16T17:04:24.163Z,-3.30
2022-12-16T17:08:44.287Z,-2.30
2022-12-16T17:13:05.085Z,-2.90
2022-12-16T17:17:25.864Z,-2.90
2022-12-16T17:21:46.166Z,-3.40
2022-12-16T17:26:06.636Z,-2.90
2022-12-16T17:30:35.010Z,-2.80
2022-12-16T17:34:55.316Z,-2.10
2022-12-16T17:39:15.887Z,-1.80
2022-12-16T17:43:36.768Z,-1.50
2022-12-16T17:47:57.207Z,-2.00
2022-12-16T17:52:17.905Z,-1.60
2022-12-16T17:56:38.393Z,-1.50
2022-12-16T18:00:58.903Z,-1.60
2022-12-16T18:05:19.457Z,-1.30
2022-12-16T18:09:39.653Z,-1.40
2022-12-16T18:14:00.592Z,-1.20
2022-12-16T18:18:21.051Z,-1.20
2022-12-16T18:22:41.703Z,-1.20
2022-12-16T18:27:02.382Z,-1.00
2022-12-16T18:31:24.548Z,-1.10
2022-12-16T18:35:44.982Z,-1.40
2022-12-16T18:40:05.369Z,-1.20
2022-12-16T18:44:29.981Z,-1.20
2022-12-16T18:48:50.398Z,-1.20
2022-12-16T18:53:10.878Z,-1.40
2022-12-16T18:57:33.969Z,-1.30
2022-12-16T19:01:59.713Z,-1.30
2022-12-16T19:06:20.038Z,-1.10
2022-12-16T19:10:40.324Z,-1.20
2022-12-16T19:15:00.400Z,-1.30
2022-12-16T19:19:40.788Z,-1.60
2022-12-16T19:24:01.889Z,-1.50
2022-12-16T19:28:22.426Z,-1.50
2022-12-16T19:32:42.807Z,-1.40
2022-12-16T19:37:03.425Z,-1.40
2022-12-16T19:41:23.834Z,-1.30
2022-12-16T19:45:44.163Z,-1.30
2022-12-16T19:50:04.457Z,-1.30
2022-12-16T19:54:24.907Z,-1.40
2022-12-16T19:58:45.402Z,-1.40
2022-12-16T20:03:05.906Z,-1.40
2022-12-16T20:07:26.780Z,-1.60
2022-12-16T20:11:47.156Z,-1.50
2022-12-16T20:16:07.689Z,-1.40
2022-12-16T20:20:27.970Z,-1.50
2022-12-16T20:24:48.509Z,-1.40
2022-12-16T20:29:09.095Z,-1.50
2022-12-16T20:33:34.536Z,-1.50
2022-12-16T20:42:35.464Z,-1.50
2022-12-16T20:46:56.771Z,-1.90
2022-12-16T20:51:26.234Z,-2.10
2022-12-16T20:55:47.408Z,-2.30
2022-12-16T21:00:08.070Z,-2.40
2022-12-16T21:04:28.427Z,-1.90
2022-12-16T21:08:48.793Z,-1.90
2022-12-16T21:13:09.408Z,-1.80
2022-12-16T21:17:29.831Z,-1.90
2022-12-16T21:21:51.720Z,-1.90
2022-12-16T21:26:12.155Z,-1.90
2022-12-16T21:30:32.877Z,-2.00
2022-12-16T21:34:53.486Z,-2.00
2022-12-16T21:39:16.749Z,-2.10
2022-12-16T21:43:37.434Z,-2.30
2022-12-16T21:47:58.004Z,-2.30
2022-12-16T21:52:18.273Z,-2.40
2022-12-16T21:56:38.849Z,-2.50
2022-12-16T22:01:00.885Z,-2.50
2022-12-16T22:05:21.633Z,-2.70
2022-12-16T22:09:41.961Z,-2.60
2022-12-16T22:14:02.627Z,-2.60
2022-12-16T22:18:23.267Z,-2.70
2022-12-16T22:22:43.890Z,-2.70
2022-12-16T22:27:04.735Z,-2.60
2022-12-16T22:31:25.385Z,-2.90
2022-12-16T22:35:45.709Z,-3.10
2022-12-16T22:40:05.956Z,-3.30
2022-12-16T22:44:27.131Z,-3.40
2022-12-16T22:48:47.974Z,-3.70
2022-12-16T22:53:08.177Z,-3.80
2022-12-16T22:57:28.753Z,-3.50
2022-12-16T23:01:49.423Z,-3.80
2022-12-16T23:06:09.793Z,-3.90
2022-12-16T23:10:30.144Z,-4.10
2022-12-16T23:15:07.341Z,-4.20
2022-12-16T23:19:27.795Z,-4.30
2022-12-16T23:24:01.951Z,-4.40
2022-12-16T23:28:23.463Z,-4.30
2022-12-16T23:32:44.662Z,-4.30
2022-12-16T23:37:05.066Z,-4.40
2022-12-16T23:41:25.508Z,-4.40
2022-12-16T23:45:45.960Z,-4.40
2022-12-16T23:50:10.914Z,-4.20
2022-12-16T23:54:34.393Z,-4.10
2022-12-16T23:58:56.197Z,-4.40
